Time;durP1;ratioP1;P1;durP2;ratioP2;P2;SDS_P1;SDS_P2;PMS_P1;PMS_P2;Temp;Humidity;BMP_temperature;BMP_pressure;BME280_temperature;BME280_humidity;BME280_pressure;Samples;Min_cycle;Max_cycle;Signal;HPM_P1;HPM_P2
2021/12/11 00:01:39;;;;;;;4.45;2.40;;;;;;;;;;5066410;28;20028;-88
2021/12/11 00:04:06;;;;;;;5.07;2.70;;;;;;;;;;5048689;28;20392;-89
2021/12/11 00:06:31;;;;;;;2.72;1.80;;;;;;;;;;5065282;28;20218;-88
2021/12/11 00:08:56;;;;;;;2.50;1.70;;;;;;;;;;5066364;28;20373;-87
2021/12/11 00:11:22;;;;;;;3.47;2.05;;;;;;;;;;5064505;28;20032;-89
2021/12/11 00:13:47;;;;;;;2.55;2.03;;;;;;;;;;5083042;28;20028;-89
2021/12/11 00:16:12;;;;;;;4.03;2.13;;;;;;;;;;5082624;28;20040;-88
2021/12/11 00:18:38;;;;;;;3.40;2.38;;;;;;;;;;5048792;28;20056;-88
2021/12/11 00:21:03;;;;;;;3.35;2.20;;;;;;;;;;5064186;28;20033;-88
2021/12/11 00:23:28;;;;;;;2.55;1.67;;;;;;;;;;5048196;28;20043;-88
2021/12/11 00:25:54;;;;;;;3.28;2.00;;;;;;;;;;5065289;28;20041;-88
2021/12/11 00:28:19;;;;;;;3.88;1.90;;;;;;;;;;5064597;28;20036;-87
2021/12/11 00:30:44;;;;;;;4.10;1.77;;;;;;;;;;5083015;28;20020;-88
2021/12/11 00:33:10;;;;;;;3.42;2.00;;;;;;;;;;5064048;28;20496;-88
2021/12/11 00:35:35;;;;;;;1.85;1.20;;;;;;;;;;5063717;28;20036;-88
2021/12/11 00:38:00;;;;;;;2.22;1.40;;;;;;;;;;5064800;28;20033;-88
2021/12/11 00:40:26;;;;;;;2.75;1.33;;;;;;;;;;5064406;28;20037;-88
2021/12/11 00:42:51;;;;;;;2.33;1.30;;;;;;;;;;5080675;28;20032;-88
2021/12/11 00:45:17;;;;;;;2.85;1.60;;;;;;;;;;5063786;28;20037;-87
2021/12/11 00:47:43;;;;;;;2.20;1.42;;;;;;;;;;5064051;28;20036;-87
2021/12/11 00:50:08;;;;;;;2.80;1.60;;;;;;;;;;5063836;28;20048;-87
2021/12/11 00:52:33;;;;;;;2.08;1.50;;;;;;;;;;5063423;28;20036;-87
2021/12/11 00:54:58;;;;;;;2.88;1.30;;;;;;;;;;5062379;28;20036;-87
2021/12/11 00:57:24;;;;;;;2.40;1.30;;;;;;;;;;5080693;28;20028;-87
2021/12/11 00:59:49;;;;;;;2.08;1.15;;;;;;;;;;5046276;28;20028;-87
2021/12/11 01:02:14;;;;;;;2.10;1.30;;;;;;;;;;5046491;28;20484;-87
2021/12/11 01:04:43;;;;;;;1.60;1.10;;;;;;;;;;5081000;28;20033;-90
2021/12/11 01:07:15;;;;;;;2.17;1.20;;;;;;;;;;5046105;28;20037;-88
2021/12/11 01:09:41;;;;;;;1.95;1.30;;;;;;;;;;5046096;28;20029;-89
2021/12/11 01:12:08;;;;;;;2.28;1.23;;;;;;;;;;5063230;28;20048;-89
2021/12/11 01:14:39;;;;;;;1.98;1.27;;;;;;;;;;5046092;28;20044;-89
2021/12/11 01:17:06;;;;;;;2.08;1.20;;;;;;;;;;5081505;28;20033;-89
2021/12/11 01:19:36;;;;;;;2.45;1.30;;;;;;;;;;5046302;28;20037;-88
2021/12/11 01:22:09;;;;;;;1.60;1.25;;;;;;;;;;5046729;28;20044;-89
2021/12/11 01:24:43;;;;;;;1.80;1.40;;;;;;;;;;5063522;28;20060;-89
2021/12/11 01:27:08;;;;;;;2.38;1.40;;;;;;;;;;5063662;28;20040;-89
2021/12/11 01:29:33;;;;;;;1.92;1.10;;;;;;;;;;5081520;28;20020;-88
2021/12/11 01:31:59;;;;;;;1.92;1.20;;;;;;;;;;5063365;28;20044;-88
2021/12/11 01:34:24;;;;;;;1.90;1.02;;;;;;;;;;5062976;28;20043;-89
2021/12/11 01:36:50;;;;;;;2.28;1.00;;;;;;;;;;5062669;28;20171;-88
2021/12/11 01:39:15;;;;;;;1.55;1.00;;;;;;;;;;5080535;28;20032;-88
2021/12/11 01:41:41;;;;;;;1.33;0.80;;;;;;;;;;5081880;28;20384;-88
2021/12/11 01:44:06;;;;;;;1.17;0.80;;;;;;;;;;5048002;28;20048;-88
2021/12/11 01:46:31;;;;;;;2.35;0.80;;;;;;;;;;5080637;28;20063;-88
2021/12/11 01:48:58;;;;;;;2.78;0.80;;;;;;;;;;5047021;28;20036;-88
2021/12/11 01:51:24;;;;;;;2.70;1.20;;;;;;;;;;5064190;28;20085;-88
2021/12/11 01:53:49;;;;;;;2.75;1.08;;;;;;;;;;5063202;28;20490;-88
2021/12/11 01:56:14;;;;;;;1.50;0.50;;;;;;;;;;5080043;28;20044;-87
2021/12/11 01:58:40;;;;;;;2.35;0.60;;;;;;;;;;5044877;28;20044;-88
2021/12/11 02:01:05;;;;;;;1.10;0.47;;;;;;;;;;5062379;28;20111;-87
2021/12/11 02:03:30;;;;;;;0.30;0.30;;;;;;;;;;5062421;28;20032;-88
2021/12/11 02:05:56;;;;;;;0.73;0.40;;;;;;;;;;5063042;28;20066;-87
2021/12/11 02:08:21;;;;;;;0.30;0.30;;;;;;;;;;5082993;28;20040;-89
2021/12/11 02:10:46;;;;;;;0.38;0.38;;;;;;;;;;5066801;28;20067;-87
2021/12/11 02:13:12;;;;;;;0.40;0.40;;;;;;;;;;5065853;28;20024;-88
2021/12/11 02:15:46;;;;;;;0.77;0.43;;;;;;;;;;5084001;28;20039;-88
2021/12/11 02:18:12;;;;;;;0.68;0.40;;;;;;;;;;5084323;28;20021;-88
2021/12/11 02:20:38;;;;;;;0.63;0.50;;;;;;;;;;5084274;28;20032;-88
2021/12/11 02:23:03;;;;;;;0.50;0.45;;;;;;;;;;5067345;28;20025;-89
2021/12/11 02:25:28;;;;;;;0.60;0.52;;;;;;;;;;5065688;28;20041;-89
2021/12/11 02:27:54;;;;;;;0.95;0.57;;;;;;;;;;5065494;28;20032;-88
2021/12/11 02:30:20;;;;;;;0.68;0.50;;;;;;;;;;5065808;28;20029;-87
2021/12/11 02:32:46;;;;;;;0.50;0.40;;;;;;;;;;5084395;28;20074;-88
2021/12/11 02:35:11;;;;;;;0.80;0.50;;;;;;;;;;5083670;28;20040;-88
2021/12/11 02:37:37;;;;;;;1.23;0.50;;;;;;;;;;5083655;28;20037;-88
2021/12/11 02:40:02;;;;;;;0.63;0.40;;;;;;;;;;5048722;28;20534;-87
2021/12/11 02:42:27;;;;;;;1.17;0.60;;;;;;;;;;5048874;28;20040;-88
2021/12/11 02:44:53;;;;;;;0.60;0.43;;;;;;;;;;5082831;28;20044;-87
2021/12/11 02:47:18;;;;;;;0.65;0.50;;;;;;;;;;5065021;28;20036;-87
2021/12/11 02:49:43;;;;;;;1.02;0.43;;;;;;;;;;5082847;28;20047;-87
2021/12/11 02:52:09;;;;;;;0.60;0.50;;;;;;;;;;5064663;28;20029;-88
2021/12/11 02:54:34;;;;;;;0.52;0.30;;;;;;;;;;5083735;28;20047;-87
2021/12/11 02:56:59;;;;;;;0.52;0.40;;;;;;;;;;5082670;28;20033;-88
2021/12/11 02:59:26;;;;;;;0.40;0.38;;;;;;;;;;5065205;28;20185;-88
2021/12/11 03:01:51;;;;;;;0.30;0.30;;;;;;;;;;5083459;28;20039;-87
2021/12/11 03:04:22;;;;;;;0.35;0.35;;;;;;;;;;5082923;28;20028;-88
2021/12/11 03:06:49;;;;;;;0.88;0.47;;;;;;;;;;5064455;28;20047;-88
2021/12/11 03:09:14;;;;;;;0.65;0.40;;;;;;;;;;5065007;28;20534;-87
2021/12/11 03:11:40;;;;;;;1.40;0.55;;;;;;;;;;5047799;28;20032;-90
2021/12/11 03:14:07;;;;;;;0.88;0.60;;;;;;;;;;5065154;28;20395;-88
2021/12/11 03:16:33;;;;;;;1.00;0.47;;;;;;;;;;5047988;28;20033;-88
2021/12/11 03:18:58;;;;;;;1.30;0.52;;;;;;;;;;5047852;28;20455;-87
2021/12/11 03:21:26;;;;;;;0.40;0.30;;;;;;;;;;5082024;28;20020;-87
2021/12/11 03:23:52;;;;;;;0.77;0.50;;;;;;;;;;5064351;28;20114;-88
2021/12/11 03:26:17;;;;;;;0.50;0.50;;;;;;;;;;5064810;28;20028;-88
2021/12/11 03:28:46;;;;;;;1.17;0.47;;;;;;;;;;5047699;28;20072;-88
2021/12/11 03:31:11;;;;;;;0.40;0.40;;;;;;;;;;5064639;28;20037;-88
2021/12/11 03:33:36;;;;;;;0.50;0.50;;;;;;;;;;5082628;28;20040;-88
2021/12/11 03:36:02;;;;;;;0.40;0.40;;;;;;;;;;5064574;28;20033;-88
2021/12/11 03:38:27;;;;;;;0.65;0.50;;;;;;;;;;5063702;28;20033;-88
2021/12/11 03:40:53;;;;;;;0.47;0.32;;;;;;;;;;5082556;28;20025;-88
2021/12/11 03:43:18;;;;;;;0.60;0.60;;;;;;;;;;5063531;28;20044;-87
2021/12/11 03:45:43;;;;;;;0.40;0.40;;;;;;;;;;5064764;28;20090;-88
2021/12/11 03:48:09;;;;;;;0.90;0.52;;;;;;;;;;5065329;28;20032;-88
2021/12/11 03:50:34;;;;;;;1.58;0.60;;;;;;;;;;5064327;28;20381;-87
2021/12/11 03:52:59;;;;;;;0.98;0.60;;;;;;;;;;5064809;28;20029;-87
2021/12/11 03:55:25;;;;;;;0.90;0.50;;;;;;;;;;5081870;28;20159;-88
2021/12/11 03:57:56;;;;;;;1.38;0.50;;;;;;;;;;5081278;28;20496;-87
2021/12/11 04:00:22;;;;;;;1.85;0.52;;;;;;;;;;5048085;28;20050;-87
2021/12/11 04:02:48;;;;;;;0.80;0.60;;;;;;;;;;5065127;28;20123;-88
2021/12/11 04:05:13;;;;;;;0.60;0.50;;;;;;;;;;5062912;28;20090;-87
2021/12/11 04:07:39;;;;;;;0.95;0.60;;;;;;;;;;5082038;28;20028;-87
2021/12/11 04:10:04;;;;;;;0.60;0.50;;;;;;;;;;5080620;28;20495;-87
2021/12/11 04:12:29;;;;;;;1.08;0.47;;;;;;;;;;5062283;28;20041;-87
2021/12/11 04:14:55;;;;;;;0.90;0.50;;;;;;;;;;5062066;28;20032;-87
2021/12/11 04:17:22;;;;;;;0.70;0.50;;;;;;;;;;5045972;28;20040;-87
2021/12/11 04:19:47;;;;;;;0.90;0.73;;;;;;;;;;5081322;28;20075;-87
2021/12/11 04:22:12;;;;;;;1.15;0.70;;;;;;;;;;5081631;28;20013;-87
2021/12/11 04:24:38;;;;;;;0.45;0.45;;;;;;;;;;5064326;28;20071;-88
2021/12/11 04:27:03;;;;;;;0.60;0.52;;;;;;;;;;5062548;28;20040;-87
2021/12/11 04:29:29;;;;;;;0.50;0.50;;;;;;;;;;5062705;28;20033;-89
2021/12/11 04:31:54;;;;;;;0.32;0.32;;;;;;;;;;5063783;28;20056;-88
2021/12/11 04:34:20;;;;;;;0.73;0.50;;;;;;;;;;5081881;28;20039;-87
2021/12/11 04:36:45;;;;;;;0.77;0.50;;;;;;;;;;5080678;28;20028;-88
2021/12/11 04:39:11;;;;;;;0.52;0.52;;;;;;;;;;5063881;28;20083;-87
2021/12/11 04:41:41;;;;;;;0.63;0.50;;;;;;;;;;5081387;28;20033;-87
2021/12/11 04:44:07;;;;;;;0.40;0.35;;;;;;;;;;5080265;28;20175;-88
2021/12/11 04:46:32;;;;;;;2.45;0.50;;;;;;;;;;5062674;28;20075;-87
2021/12/11 04:51:30;;;;;;;0.60;0.40;;;;;;;;;;5080395;28;20048;-87
2021/12/11 05:06:56;;;;;;;1.30;0.40;;;;;;;;;;5079719;28;20032;-87
2021/12/11 05:11:55;;;;;;;0.40;0.40;;;;;;;;;;5061385;28;20454;-87
2021/12/11 05:14:20;;;;;;;0.40;0.38;;;;;;;;;;5060798;28;20037;-87
2021/12/11 05:16:45;;;;;;;0.38;0.30;;;;;;;;;;5061846;28;20032;-87
2021/12/11 05:19:11;;;;;;;0.43;0.40;;;;;;;;;;5044752;28;20045;-86
2021/12/11 05:21:36;;;;;;;2.10;0.50;;;;;;;;;;5060738;28;20056;-87
2021/12/11 05:24:01;;;;;;;2.13;0.82;;;;;;;;;;5060410;28;20028;-87
2021/12/11 05:26:27;;;;;;;1.00;0.80;;;;;;;;;;5078804;28;20095;-88
2021/12/11 05:28:52;;;;;;;1.00;0.90;;;;;;;;;;5044191;28;20437;-87
2021/12/11 05:31:17;;;;;;;0.88;0.60;;;;;;;;;;5079619;28;20040;-88
2021/12/11 05:33:43;;;;;;;1.80;1.10;;;;;;;;;;5043448;28;20041;-88
2021/12/11 05:36:09;;;;;;;1.40;1.20;;;;;;;;;;5044191;28;20040;-87
2021/12/11 05:38:37;;;;;;;1.25;1.00;;;;;;;;;;5079785;28;20039;-87
2021/12/11 05:41:02;;;;;;;1.27;1.00;;;;;;;;;;5062779;28;20033;-88
2021/12/11 05:43:28;;;;;;;1.13;0.75;;;;;;;;;;5064648;28;20060;-88
2021/12/11 05:45:53;;;;;;;1.58;0.90;;;;;;;;;;5047814;28;20131;-87
2021/12/11 05:48:18;;;;;;;0.90;0.70;;;;;;;;;;5082990;28;20107;-88
2021/12/11 05:50:44;;;;;;;2.00;1.02;;;;;;;;;;5063917;28;20111;-88
2021/12/11 05:53:09;;;;;;;3.53;1.40;;;;;;;;;;5065082;28;20076;-88
2021/12/11 05:55:34;;;;;;;1.75;0.85;;;;;;;;;;5064273;28;20024;-87
2021/12/11 05:58:02;;;;;;;7.75;3.45;;;;;;;;;;5064372;28;20483;-87
2021/12/11 06:00:28;;;;;;;3.92;2.15;;;;;;;;;;5064542;28;20029;-87
2021/12/11 06:02:53;;;;;;;8.18;4.20;;;;;;;;;;5062318;28;20551;-87
2021/12/11 06:05:18;;;;;;;4.90;2.40;;;;;;;;;;5061775;28;20052;-88
2021/12/11 06:07:44;;;;;;;7.25;3.17;;;;;;;;;;5082299;28;20049;-87
2021/12/11 06:10:09;;;;;;;3.60;1.70;;;;;;;;;;5047665;28;20025;-87
2021/12/11 06:12:34;;;;;;;1.70;1.20;;;;;;;;;;5063931;28;20092;-88
2021/12/11 06:15:00;;;;;;;4.35;2.20;;;;;;;;;;5080847;28;20059;-88
2021/12/11 06:17:25;;;;;;;3.72;2.30;;;;;;;;;;5064529;28;20036;-88
2021/12/11 06:19:52;;;;;;;3.17;2.00;;;;;;;;;;5063213;28;20044;-88
2021/12/11 06:22:18;;;;;;;3.47;1.90;;;;;;;;;;5064828;28;20091;-88
2021/12/11 06:24:43;;;;;;;7.55;4.22;;;;;;;;;;5082195;28;20036;-88
2021/12/11 06:27:08;;;;;;;4.05;2.10;;;;;;;;;;5082007;28;20029;-88
2021/12/11 06:29:34;;;;;;;1.90;1.50;;;;;;;;;;5082553;28;20451;-87
2021/12/11 06:31:59;;;;;;;3.88;2.20;;;;;;;;;;5082261;28;20392;-87
2021/12/11 06:34:24;;;;;;;2.47;1.30;;;;;;;;;;5063029;28;20032;-88
2021/12/11 06:36:50;;;;;;;3.05;1.80;;;;;;;;;;5082521;28;20027;-87
2021/12/11 06:39:15;;;;;;;2.08;1.40;;;;;;;;;;5047342;28;20043;-87
2021/12/11 06:41:40;;;;;;;2.45;1.50;;;;;;;;;;5062959;28;20032;-87
2021/12/11 06:44:06;;;;;;;1.83;1.40;;;;;;;;;;5047787;28;20552;-87
2021/12/11 06:46:32;;;;;;;1.80;1.02;;;;;;;;;;5081779;28;20107;-87
2021/12/11 06:48:58;;;;;;;2.03;1.00;;;;;;;;;;5063120;28;20131;-87
2021/12/11 06:51:23;;;;;;;2.30;1.20;;;;;;;;;;5063663;28;20076;-87
2021/12/11 06:53:48;;;;;;;1.75;1.10;;;;;;;;;;5045909;28;20043;-87
2021/12/11 06:56:14;;;;;;;1.55;1.20;;;;;;;;;;5046140;28;20024;-87
2021/12/11 06:58:39;;;;;;;3.60;1.92;;;;;;;;;;5081464;28;20055;-87
2021/12/11 07:01:04;;;;;;;4.47;2.65;;;;;;;;;;5063588;28;20024;-87
2021/12/11 07:03:30;;;;;;;2.38;1.40;;;;;;;;;;5063573;28;20119;-88
2021/12/11 07:05:55;;;;;;;2.20;0.98;;;;;;;;;;5080946;28;20054;-87
2021/12/11 07:08:22;;;;;;;1.08;0.80;;;;;;;;;;5047327;28;20055;-87
2021/12/11 07:10:47;;;;;;;5.35;2.40;;;;;;;;;;5061662;28;20040;-86
2021/12/11 07:13:13;;;;;;;12.73;5.10;;;;;;;;;;5061392;28;20128;-87
2021/12/11 07:15:38;;;;;;;4.25;2.40;;;;;;;;;;5061366;28;20100;-87
2021/12/11 07:18:03;;;;;;;0.85;0.52;;;;;;;;;;5061617;28;20036;-87
2021/12/11 07:20:29;;;;;;;1.75;0.80;;;;;;;;;;5060980;28;20036;-87
2021/12/11 07:22:54;;;;;;;2.30;1.05;;;;;;;;;;5044661;28;20100;-87
2021/12/11 07:25:19;;;;;;;3.22;1.65;;;;;;;;;;5077725;28;20151;-86
2021/12/11 07:27:45;;;;;;;3.15;1.08;;;;;;;;;;5077522;28;20035;-87
2021/12/11 07:30:10;;;;;;;2.88;1.30;;;;;;;;;;5079094;28;20074;-87
2021/12/11 07:32:35;;;;;;;2.00;1.40;;;;;;;;;;5077643;28;20385;-87
2021/12/11 07:35:01;;;;;;;4.28;2.35;;;;;;;;;;5077966;28;20485;-87
2021/12/11 07:37:26;;;;;;;2.78;1.70;;;;;;;;;;5042708;28;20016;-87
2021/12/11 07:39:51;;;;;;;2.13;1.23;;;;;;;;;;5059572;28;20036;-87
2021/12/11 07:42:17;;;;;;;1.20;0.80;;;;;;;;;;5077359;28;20067;-88
2021/12/11 07:44:42;;;;;;;0.68;0.60;;;;;;;;;;5059384;28;20080;-87
2021/12/11 07:47:07;;;;;;;1.63;0.70;;;;;;;;;;5059992;28;20036;-87
2021/12/11 07:49:33;;;;;;;3.15;0.77;;;;;;;;;;5059771;28;20044;-87
2021/12/11 07:51:58;;;;;;;1.42;0.70;;;;;;;;;;5059628;28;20016;-87
2021/12/11 07:54:23;;;;;;;0.80;0.52;;;;;;;;;;5077600;28;20474;-87
2021/12/11 07:56:49;;;;;;;0.75;0.50;;;;;;;;;;5043638;28;20040;-87
2021/12/11 07:59:14;;;;;;;1.23;0.60;;;;;;;;;;5078316;28;20034;-88
2021/12/11 08:01:41;;;;;;;1.17;0.60;;;;;;;;;;5074090;28;20033;-86
2021/12/11 08:04:06;;;;;;;0.93;0.80;;;;;;;;;;5076738;28;20033;-87
2021/12/11 08:06:31;;;;;;;1.30;0.80;;;;;;;;;;5076859;28;20040;-87
2021/12/11 08:08:57;;;;;;;0.98;0.70;;;;;;;;;;5059983;28;20506;-86
2021/12/11 08:11:22;;;;;;;1.20;0.70;;;;;;;;;;5043574;28;20040;-87
2021/12/11 08:13:47;;;;;;;0.98;0.60;;;;;;;;;;5060192;28;20037;-87
2021/12/11 08:16:13;;;;;;;0.50;0.50;;;;;;;;;;5077865;28;20029;-87
2021/12/11 08:18:38;;;;;;;0.40;0.40;;;;;;;;;;5077507;28;20464;-86
2021/12/11 08:21:03;;;;;;;0.68;0.50;;;;;;;;;;5060263;28;20464;-87
2021/12/11 08:23:29;;;;;;;0.63;0.60;;;;;;;;;;5077344;28;20391;-87
2021/12/11 08:25:54;;;;;;;0.98;0.70;;;;;;;;;;5077130;28;20174;-86
2021/12/11 08:28:20;;;;;;;1.42;0.70;;;;;;;;;;5043418;28;20460;-87
2021/12/11 08:30:45;;;;;;;0.60;0.60;;;;;;;;;;5059868;28;20084;-87
2021/12/11 08:33:10;;;;;;;1.02;0.60;;;;;;;;;;5060696;28;20388;-87
2021/12/11 08:35:36;;;;;;;0.70;0.60;;;;;;;;;;5078127;28;20051;-87
2021/12/11 08:38:01;;;;;;;0.52;0.52;;;;;;;;;;5059318;28;20131;-87
2021/12/11 08:40:26;;;;;;;0.90;0.63;;;;;;;;;;5057802;28;20033;-87
2021/12/11 08:42:52;;;;;;;1.25;0.70;;;;;;;;;;5057914;28;20055;-88
2021/12/11 08:45:22;;;;;;;1.30;0.60;;;;;;;;;;5058577;28;20078;-87
2021/12/11 08:47:48;;;;;;;0.95;0.70;;;;;;;;;;5045352;28;20048;-88
2021/12/11 08:50:13;;;;;;;1.00;0.70;;;;;;;;;;5060387;28;20119;-88
2021/12/11 08:52:38;;;;;;;2.05;0.80;;;;;;;;;;5080478;28;20008;-88
2021/12/11 08:55:04;;;;;;;1.25;0.70;;;;;;;;;;5063204;28;20092;-86
2021/12/11 08:57:29;;;;;;;0.80;0.60;;;;;;;;;;5060936;28;20035;-87
2021/12/11 08:59:54;;;;;;;1.23;0.73;;;;;;;;;;5078999;28;20562;-87
2021/12/11 09:02:20;;;;;;;1.02;0.77;;;;;;;;;;5080088;28;20033;-87
2021/12/11 09:04:45;;;;;;;0.63;0.63;;;;;;;;;;5079298;28;20036;-88
2021/12/11 09:07:10;;;;;;;0.60;0.60;;;;;;;;;;5060902;28;20064;-87
2021/12/11 09:09:36;;;;;;;2.15;0.60;;;;;;;;;;5078727;28;20067;-86
2021/12/11 09:12:01;;;;;;;0.73;0.73;;;;;;;;;;5078247;28;20058;-87
2021/12/11 09:14:26;;;;;;;1.42;0.90;;;;;;;;;;5060422;28;20089;-87
2021/12/11 09:16:52;;;;;;;1.58;0.90;;;;;;;;;;5064449;28;20095;-87
2021/12/11 09:19:17;;;;;;;0.85;0.75;;;;;;;;;;5082668;28;20084;-87
2021/12/11 09:21:42;;;;;;;1.10;0.90;;;;;;;;;;5065468;28;20058;-87
2021/12/11 09:24:08;;;;;;;1.30;0.77;;;;;;;;;;5082613;28;20054;-87
2021/12/11 09:26:33;;;;;;;1.23;0.82;;;;;;;;;;5082987;28;20026;-87
2021/12/11 09:28:58;;;;;;;1.40;0.90;;;;;;;;;;5081453;28;20556;-87
2021/12/11 09:31:23;;;;;;;0.98;0.60;;;;;;;;;;5081613;28;20031;-87
2021/12/11 09:33:49;;;;;;;4.93;1.77;;;;;;;;;;5080441;28;20036;-86
2021/12/11 09:36:14;;;;;;;1.73;1.02;;;;;;;;;;5080633;28;20032;-87
2021/12/11 09:38:39;;;;;;;2.22;1.00;;;;;;;;;;5079929;28;20045;-87
2021/12/11 09:41:05;;;;;;;1.90;1.08;;;;;;;;;;5063786;28;20028;-86
2021/12/11 09:43:30;;;;;;;2.05;0.75;;;;;;;;;;5081530;28;20029;-86
2021/12/11 09:45:55;;;;;;;11.95;4.82;;;;;;;;;;5081414;28;20107;-87
2021/12/11 09:48:21;;;;;;;1.23;0.90;;;;;;;;;;5047029;28;20028;-86
2021/12/11 09:50:51;;;;;;;1.60;1.00;;;;;;;;;;5082048;28;20044;-86
2021/12/11 09:53:17;;;;;;;1.77;1.20;;;;;;;;;;5081098;28;20031;-86
2021/12/11 09:55:42;;;;;;;1.55;0.90;;;;;;;;;;5080874;28;20396;-86
2021/12/11 09:58:07;;;;;;;1.52;0.80;;;;;;;;;;5063055;28;20067;-86
2021/12/11 10:00:33;;;;;;;1.23;0.90;;;;;;;;;;5044057;28;20086;-86
2021/12/11 10:03:00;;;;;;;3.58;1.05;;;;;;;;;;5043172;28;20102;-86
2021/12/11 10:05:35;;;;;;;10.98;6.43;;;;;;;;;;5042535;28;20547;-86
2021/12/11 10:08:13;;;;;;;11.98;6.95;;;;;;;;;;5060056;28;20048;-87
2021/12/11 10:10:38;;;;;;;7.63;4.07;;;;;;;;;;5060370;28;20029;-87
2021/12/11 10:13:04;;;;;;;2.70;1.88;;;;;;;;;;5062846;28;20043;-88
2021/12/11 10:15:29;;;;;;;7.88;4.60;;;;;;;;;;5044447;28;20090;-87
2021/12/11 10:17:54;;;;;;;3.50;1.92;;;;;;;;;;5044321;28;20078;-87
2021/12/11 10:20:20;;;;;;;4.32;1.90;;;;;;;;;;5045640;28;20095;-88
2021/12/11 10:22:45;;;;;;;7.53;4.00;;;;;;;;;;5045013;28;20083;-87
2021/12/11 10:25:10;;;;;;;3.67;2.35;;;;;;;;;;5061069;28;20039;-87
2021/12/11 10:27:36;;;;;;;2.10;1.40;;;;;;;;;;5060312;28;20084;-86
2021/12/11 10:30:01;;;;;;;12.45;6.40;;;;;;;;;;5044392;28;20457;-87
2021/12/11 10:32:26;;;;;;;11.10;6.60;;;;;;;;;;5059696;28;20052;-87
2021/12/11 10:34:52;;;;;;;3.80;2.10;;;;;;;;;;5042031;28;20063;-87
2021/12/11 10:37:17;;;;;;;3.35;1.90;;;;;;;;;;5060577;28;20044;-87
2021/12/11 10:39:42;;;;;;;2.95;2.10;;;;;;;;;;5059659;28;20037;-87
2021/12/11 10:42:08;;;;;;;3.78;1.90;;;;;;;;;;5060147;28;20047;-87
2021/12/11 10:44:33;;;;;;;3.50;2.20;;;;;;;;;;5042714;28;20115;-87
2021/12/11 10:46:59;;;;;;;2.83;1.90;;;;;;;;;;5024891;28;20507;-87
2021/12/11 10:49:24;;;;;;;3.50;2.25;;;;;;;;;;5042636;28;20037;-88
2021/12/11 10:51:49;;;;;;;3.40;1.92;;;;;;;;;;5043042;28;20033;-87
2021/12/11 10:54:14;;;;;;;2.25;1.70;;;;;;;;;;5060325;28;20091;-87
2021/12/11 10:56:40;;;;;;;3.53;1.90;;;;;;;;;;5041596;28;20091;-87
2021/12/11 10:59:05;;;;;;;8.60;5.25;;;;;;;;;;5059967;28;20036;-87
2021/12/11 11:01:30;;;;;;;10.02;5.38;;;;;;;;;;5041880;28;20028;-87
2021/12/11 11:03:56;;;;;;;6.47;3.60;;;;;;;;;;5042107;28;20102;-87
2021/12/11 11:06:21;;;;;;;4.30;2.78;;;;;;;;;;5057442;28;20040;-87
2021/12/11 11:08:46;;;;;;;3.05;2.38;;;;;;;;;;5044417;28;20106;-87
2021/12/11 11:11:12;;;;;;;2.63;2.10;;;;;;;;;;5044462;28;20036;-86
2021/12/11 11:13:37;;;;;;;2.47;1.60;;;;;;;;;;5061447;28;20028;-86
2021/12/11 11:16:03;;;;;;;2.92;2.42;;;;;;;;;;5078162;28;20581;-88
2021/12/11 11:18:28;;;;;;;1.70;1.50;;;;;;;;;;5044391;28;20039;-86
2021/12/11 11:20:53;;;;;;;2.28;1.77;;;;;;;;;;5077479;28;20040;-88
2021/12/11 11:23:19;;;;;;;2.20;1.77;;;;;;;;;;5059921;28;20437;-87
2021/12/11 11:25:45;;;;;;;2.08;1.65;;;;;;;;;;5076973;28;20055;-87
2021/12/11 11:28:10;;;;;;;2.95;1.70;;;;;;;;;;5060485;28;20039;-87
2021/12/11 11:30:37;;;;;;;3.65;2.08;;;;;;;;;;5060177;28;20038;-87
2021/12/11 11:33:02;;;;;;;3.30;2.10;;;;;;;;;;5060563;28;20028;-87
2021/12/11 11:35:28;;;;;;;2.30;1.60;;;;;;;;;;5077458;28;20085;-87
2021/12/11 11:37:54;;;;;;;1.88;1.55;;;;;;;;;;5077875;28;20522;-87
2021/12/11 11:40:19;;;;;;;2.42;1.85;;;;;;;;;;5059171;28;20043;-86
2021/12/11 11:42:45;;;;;;;2.05;1.80;;;;;;;;;;5043257;28;20032;-86
2021/12/11 11:45:10;;;;;;;2.40;1.70;;;;;;;;;;5058957;28;20036;-87
2021/12/11 11:47:35;;;;;;;2.60;1.70;;;;;;;;;;5059841;28;20040;-87
2021/12/11 11:50:02;;;;;;;2.72;1.80;;;;;;;;;;5043825;28;20028;-86
2021/12/11 11:52:27;;;;;;;3.00;2.03;;;;;;;;;;5078310;28;20028;-87
2021/12/11 11:54:52;;;;;;;4.90;2.10;;;;;;;;;;5080024;28;20511;-86
2021/12/11 11:57:18;;;;;;;4.30;2.10;;;;;;;;;;5076167;28;20123;-86
2021/12/11 11:59:44;;;;;;;3.50;2.10;;;;;;;;;;5058817;28;20037;-87
2021/12/11 12:02:09;;;;;;;2.42;2.00;;;;;;;;;;5076755;28;20465;-87
2021/12/11 12:04:34;;;;;;;3.67;2.63;;;;;;;;;;5059188;28;20025;-86
2021/12/11 12:07:02;;;;;;;3.80;2.50;;;;;;;;;;5058804;28;20040;-87
2021/12/11 12:09:27;;;;;;;8.05;4.70;;;;;;;;;;5077019;28;20043;-87
2021/12/11 12:11:53;;;;;;;4.07;2.70;;;;;;;;;;5076904;28;20044;-87
2021/12/11 12:14:18;;;;;;;4.00;2.78;;;;;;;;;;5076849;28;20055;-86
2021/12/11 12:16:43;;;;;;;6.25;3.33;;;;;;;;;;5075557;28;20029;-87
2021/12/11 12:19:09;;;;;;;4.00;3.10;;;;;;;;;;5075801;28;20377;-87
2021/12/11 12:21:34;;;;;;;3.75;2.55;;;;;;;;;;5060008;28;20035;-87
2021/12/11 12:23:59;;;;;;;2.80;2.00;;;;;;;;;;5066132;28;20029;-87
2021/12/11 12:26:25;;;;;;;4.38;2.10;;;;;;;;;;5060017;28;20118;-87
2021/12/11 12:28:50;;;;;;;3.08;2.28;;;;;;;;;;5059478;28;20044;-86
2021/12/11 12:31:15;;;;;;;2.63;1.90;;;;;;;;;;5058785;28;20107;-87
2021/12/11 12:33:41;;;;;;;2.05;1.70;;;;;;;;;;5058848;28;20119;-87
2021/12/11 12:36:06;;;;;;;5.00;2.95;;;;;;;;;;5075935;28;20036;-87
2021/12/11 12:38:32;;;;;;;2.50;1.90;;;;;;;;;;5057819;28;20036;-87
2021/12/11 12:40:59;;;;;;;3.40;1.88;;;;;;;;;;5042253;28;20036;-89
2021/12/11 12:46:16;;;;;;;2.55;1.85;;;;;;;;;;5045490;28;20028;-87
2021/12/11 12:48:42;;;;;;;3.90;2.00;;;;;;;;;;5042484;28;20085;-87
2021/12/11 12:51:07;;;;;;;3.47;2.20;;;;;;;;;;5056876;28;20407;-86
2021/12/11 12:53:35;;;;;;;2.30;1.70;;;;;;;;;;5058306;28;20127;-86
2021/12/11 12:56:02;;;;;;;4.13;2.10;;;;;;;;;;5042571;28;20106;-88
2021/12/11 12:58:27;;;;;;;3.60;2.10;;;;;;;;;;5079147;28;20028;-89
2021/12/11 13:00:52;;;;;;;6.07;2.55;;;;;;;;;;5059646;28;20127;-89
2021/12/11 13:03:18;;;;;;;3.83;2.05;;;;;;;;;;5042150;28;20056;-88
2021/12/11 13:05:43;;;;;;;9.50;6.93;;;;;;;;;;5057265;28;20111;-88
2021/12/11 13:08:09;;;;;;;5.95;3.30;;;;;;;;;;5075500;28;20079;-89
2021/12/11 13:10:34;;;;;;;6.00;3.28;;;;;;;;;;5058444;28;20040;-88
2021/12/11 13:12:59;;;;;;;11.05;5.45;;;;;;;;;;5058387;28;20025;-88
2021/12/11 13:15:24;;;;;;;10.93;5.70;;;;;;;;;;5058001;28;20376;-88
2021/12/11 13:17:50;;;;;;;6.20;3.80;;;;;;;;;;5058250;28;20392;-87
2021/12/11 13:20:15;;;;;;;4.07;2.70;;;;;;;;;;5058228;28;20134;-87
2021/12/11 13:22:41;;;;;;;3.50;2.85;;;;;;;;;;5042345;28;20116;-87
2021/12/11 13:25:06;;;;;;;3.47;2.42;;;;;;;;;;5058159;28;20037;-88
2021/12/11 13:27:31;;;;;;;4.72;2.90;;;;;;;;;;5058192;28;20484;-88
2021/12/11 13:29:57;;;;;;;4.82;2.70;;;;;;;;;;5076391;28;20024;-88
2021/12/11 13:32:22;;;;;;;3.90;2.60;;;;;;;;;;5043135;28;20032;-87
2021/12/11 13:34:47;;;;;;;6.07;3.25;;;;;;;;;;5059444;28;20058;-87
2021/12/11 13:37:13;;;;;;;4.07;2.95;;;;;;;;;;5078455;28;20476;-88
2021/12/11 13:39:38;;;;;;;3.90;2.47;;;;;;;;;;5059901;28;20054;-87
2021/12/11 13:42:03;;;;;;;4.90;3.38;;;;;;;;;;5059730;28;20039;-87
2021/12/11 13:44:29;;;;;;;5.75;3.05;;;;;;;;;;5076789;28;20498;-88
2021/12/11 13:46:54;;;;;;;3.92;2.60;;;;;;;;;;5042682;28;20480;-88
2021/12/11 13:49:19;;;;;;;3.65;2.50;;;;;;;;;;5059580;28;20396;-88
2021/12/11 13:51:45;;;;;;;5.13;2.72;;;;;;;;;;5079024;28;20063;-88
2021/12/11 13:54:10;;;;;;;4.95;2.92;;;;;;;;;;5060712;28;20032;-87
2021/12/11 13:56:35;;;;;;;5.38;2.75;;;;;;;;;;5059277;28;20481;-87
2021/12/11 13:59:01;;;;;;;3.42;2.45;;;;;;;;;;5043104;28;20033;-86
2021/12/11 14:01:26;;;;;;;7.45;2.60;;;;;;;;;;5061406;28;20177;-87
2021/12/11 14:03:51;;;;;;;3.35;2.67;;;;;;;;;;5081227;28;20086;-88
2021/12/11 14:06:18;;;;;;;3.60;2.55;;;;;;;;;;5081433;28;20036;-89
2021/12/11 14:08:44;;;;;;;5.18;2.70;;;;;;;;;;5065727;28;20102;-86
2021/12/11 14:11:09;;;;;;;6.18;3.35;;;;;;;;;;5083861;28;20439;-87
2021/12/11 14:13:34;;;;;;;4.93;2.90;;;;;;;;;;5083896;28;20466;-87
2021/12/11 14:15:59;;;;;;;3.75;2.80;;;;;;;;;;5067285;28;20041;-87
2021/12/11 14:18:25;;;;;;;3.80;2.45;;;;;;;;;;5085056;28;20029;-87
2021/12/11 14:20:50;;;;;;;3.28;2.40;;;;;;;;;;5083608;28;20051;-87
2021/12/11 14:23:15;;;;;;;3.65;2.60;;;;;;;;;;5085166;28;20020;-87
2021/12/11 14:25:41;;;;;;;4.70;2.42;;;;;;;;;;5083133;28;20040;-87
2021/12/11 14:28:06;;;;;;;4.80;2.40;;;;;;;;;;5083400;28;20032;-88
2021/12/11 14:30:31;;;;;;;3.55;2.50;;;;;;;;;;5048568;28;20096;-86
2021/12/11 14:32:57;;;;;;;4.80;3.20;;;;;;;;;;5064860;28;20048;-87
2021/12/11 14:35:22;;;;;;;5.57;3.88;;;;;;;;;;5080747;28;20024;-87
2021/12/11 14:37:47;;;;;;;6.25;3.80;;;;;;;;;;5064342;28;20024;-88
2021/12/11 14:40:13;;;;;;;6.85;3.85;;;;;;;;;;5064649;28;20036;-87
2021/12/11 14:42:38;;;;;;;8.40;5.05;;;;;;;;;;5064464;28;20020;-87
2021/12/11 14:45:03;;;;;;;9.20;4.60;;;;;;;;;;5063455;28;20043;-87
2021/12/11 14:47:29;;;;;;;8.77;4.38;;;;;;;;;;5081082;28;20028;-88
2021/12/11 14:49:56;;;;;;;8.25;4.85;;;;;;;;;;5063794;28;20032;-88
2021/12/11 14:52:23;;;;;;;8.50;4.28;;;;;;;;;;5082890;28;20056;-87
2021/12/11 14:54:48;;;;;;;8.18;4.60;;;;;;;;;;5064077;28;20035;-86